Flight Track Log - Related Links

Times and Time Zones

All times are in EDT time to prevent confusion due to time zone crossing. See the EJA933 flight status page for this flight to view local times or setup timezone preferences in your user account.

Time Position Orientation Groundspeed Altitude Reporting Facility
EDT Latitude Longitude Course Direction KTS km/h feet Rate Location/Type
Wed 17:53:11 34.0500 -117.6333 270° West 199 369 2.600  Level Southern California TRACON
Wed 17:54:11 34.0500 -117.7167 270° West 273 505 5.200 2.156 Climbing Southern California TRACON
Wed 17:56:23 34.1522 -117.8719 309° West 277 513 9.500 1.877 Climbing Los Angeles Center
Wed 17:57:26 34.2100 -117.9356 318° Northwest 282 523 11.300 2.016 Climbing Los Angeles Center
Wed 17:58:28 34.2942 -117.8772 30° Northeast 330 612 13.700 2.032 Climbing Los Angeles Center
Wed 17:59:30 34.3453 -117.7831 57° Northeast 336 623 15.500 1.597 Climbing Los Angeles Center
Wed 18:00:32 34.4033 -117.6717 58° Northeast 369 684 17.000 1.306 Climbing Los Angeles Center
Wed 18:01:34 34.4611 -117.5581 58° Northeast 399 739 18.200 1.210 Climbing Los Angeles Center
Wed 18:02:36 34.5206 -117.4403 58° Northeast 414 766 19.500 1.210 Climbing Los Angeles Center
Wed 18:03:38 34.5833 -117.3183 58° Northeast 425 787 20.700 1.113 Climbing Los Angeles Center
Wed 18:04:40 34.6483 -117.1922 58° Northeast 439 813 21.800 1.355 Climbing Los Angeles Center
Wed 18:05:42 34.7286 -117.0367 58° Northeast 454 840 23.500 1.500 Climbing Los Angeles Center
Wed 18:06:44 34.7950 -116.9033 59° Northeast 463 858 24.900 1.344 Climbing Los Angeles Center
Wed 18:07:47 34.8639 -116.7675 58° Northeast 472 874 26.300 1.344 Climbing Los Angeles Center
Wed 18:08:49 34.9347 -116.6303 58° Northeast 481 892 27.700 1.368 Climbing Los Angeles Center
Wed 18:10:03 35.0389 -116.4792 50° Northeast 483 895 29.400 1.456 Climbing Los Angeles Center
Wed 18:11:05 35.1542 -116.3356 46° Northeast 492 911 31.000 1.452 Climbing Los Angeles Center
Wed 18:12:07 35.2539 -116.2117 45° Northeast 503 932 32.400 1.210 Climbing Los Angeles Center
Wed 18:13:09 35.3536 -116.0828 46° Northeast 517 958 33.500 1.113 Climbing Los Angeles Center
Wed 18:14:11 35.4569 -115.9528 46° Northeast 530 982 34.700 1.065 Climbing Los Angeles Center
Wed 18:15:13 35.5664 -115.8200 45° Northeast 537 995 35.700 1.065 Climbing Los Angeles Center
Wed 18:16:15 35.6942 -115.6583 46° Northeast 547 1012 36.900 1.056 Climbing Los Angeles Center
Wed 18:17:18 35.8011 -115.5197 46° Northeast 557 1032 37.900 960 Climbing Los Angeles Center
Wed 18:18:20 35.9075 -115.3828 46° Northeast 558 1033 38.900 968 Climbing Los Angeles Center
Wed 18:19:22 36.0117 -115.2442 47° Northeast 558 1033 39.900 871 Climbing Los Angeles Center
Wed 18:20:24 36.1164 -115.1100 46° Northeast 552 1022 40.700 532 Climbing Los Angeles Center
Wed 18:21:26 36.2458 -114.9486 45° Northeast 556 1030 41.000 145 Climbing Los Angeles Center
Wed 18:22:28 36.3547 -114.8094 46° Northeast 564 1044 41.000  Level Los Angeles Center
Wed 18:23:30 36.4628 -114.6689 46° Northeast 566 1048 41.000  Level Los Angeles Center
Wed 18:24:32 36.5714 -114.5250 47° Northeast 571 1057 41.000  Level Los Angeles Center
Wed 18:25:34 36.6817 -114.3825 46° Northeast 573 1061 41.000  Level Los Angeles Center
Wed 18:26:36 36.7856 -114.2297 50° Northeast 578 1070 41.000  Level Los Angeles Center
Wed 18:27:38 36.8847 -114.0186 60° Northeast 586 1085 41.000  Level Los Angeles Center
Wed 18:28:40 36.9736 -113.8353 59° Northeast 588 1090 41.000  Level Los Angeles Center
Wed 18:29:42 37.0561 -113.6594 60° Northeast 588 1090 41.000  Level Los Angeles Center
Wed 18:30:44 37.1403 -113.4842 59° Northeast 588 1090 41.000  Level Los Angeles Center
Wed 18:31:46 37.2231 -113.3083 59° Northeast 588 1090 41.000  Level Los Angeles Center
Wed 18:32:48 37.3053 -113.1317 60° Northeast 589 1091 41.000  Level Los Angeles Center
Wed 18:33:49 37.3714 -112.9908 59° Northeast 590 1093 41.000  Level Los Angeles Center
Wed 18:34:52 37.4844 -112.7481 60° Northeast 590 1093 41.000  Level Los Angeles Center
Wed 18:35:54 37.5656 -112.5728 60° Northeast 593 1098 41.000  Level Los Angeles Center
Wed 18:36:58 37.6472 -112.3964 60° Northeast 591 1094 41.000  Level Salt Lake Center
Wed 18:38:00 37.7819 -112.2253 45° Northeast 579 1072 41.000  Level Salt Lake Center
Wed 18:39:01 37.9156 -112.1128 34° Northeast 579 1072 41.000  Level Salt Lake Center
Wed 18:40:03 38.0469 -111.9992 34° Northeast 575 1065 41.000  Level Salt Lake Center
Wed 18:41:05 38.1797 -111.8869 34° Northeast 576 1067 41.000  Level Salt Lake Center
Wed 18:42:07 38.3117 -111.7733 34° Northeast 574 1064 41.000  Level Salt Lake Center
Wed 18:43:09 38.4436 -111.6575 35° Northeast 576 1067 41.000  Level Salt Lake Center
Wed 18:44:11 38.6025 -111.5189 34° Northeast 576 1067 41.000  Level Salt Lake Center
Wed 18:45:12 38.7339 -111.4058 34° Northeast 572 1059 41.000  Level Salt Lake Center
Wed 18:46:14 38.8658 -111.2875 35° Northeast 578 1070 41.000  Level Salt Lake Center
Wed 18:47:16 39.0036 -111.1650 35° Northeast 579 1072 41.000  Level Salt Lake Center
Wed 18:48:18 39.1294 -111.0517 35° Northeast 575 1065 41.000  Level Salt Lake Center
Wed 18:49:20 39.2767 -110.9219 34° Northeast 574 1064 41.000  Level Salt Lake Center
Wed 18:50:22 39.4003 -110.8106 35° Northeast 568 1053 41.000  Level Salt Lake Center
Wed 18:51:23 39.5453 -110.6803 35° Northeast 567 1049 41.000  Level Salt Lake Center
Wed 18:52:25 39.6689 -110.5672 35° Northeast 566 1048 41.000  Level Salt Lake Center
Wed 18:53:27 39.7925 -110.4550 35° Northeast 566 1048 41.000  Level Salt Lake Center
Wed 18:54:29 39.9369 -110.3233 35° Northeast 565 1046 41.000  Level Salt Lake Center
Wed 18:55:31 40.0600 -110.2097 35° Northeast 564 1044 41.000  Level Salt Lake Center
Wed 18:56:32 40.1942 -110.0594 41° Northeast 568 1053 41.000  Level Salt Lake Center
Wed 18:57:34 40.2911 -109.9111 49° Northeast 561 1040 41.000 462 Level Salt Lake Center
Wed 18:59:08 40.4492 -109.6675 50° Northeast 547 1012 42.200 774 Climbing Denver Center
Wed 18:59:38 40.4956 -109.5969 49° Northeast 544 1007 42.600 522 Climbing Salt Lake Center
Wed 19:00:40 40.5889 -109.4525 50° Northeast 541 1003 43.000 195 Climbing Salt Lake Center
Wed 19:01:41 40.6994 -109.2811 50° Northeast 547 1012 43.000  Level Salt Lake Center
Wed 19:02:43 40.8017 -109.1186 50° Northeast 563 1043 43.000  Level Salt Lake Center
Wed 19:03:45 40.8972 -108.9667 50° Northeast 566 1048 43.000 48 Level Salt Lake Center
Wed 19:04:47 41.0100 -108.7889 50° Northeast 569 1054 43.100 48 Climbing Salt Lake Center
Wed 19:05:49 41.1044 -108.6378 50° Northeast 563 1043 43.100 -49 Level Salt Lake Center
Wed 19:06:50 41.2150 -108.4628 50° Northeast 561 1040 43.000 -56 Descending Salt Lake Center
Wed 19:07:37 41.2925 -108.3364 51° Northeast 555 1028 43.000  Level Denver Center
Wed 19:08:39 41.3864 -108.1847 50° Northeast 557 1032 43.000  Level Denver Center
Wed 19:09:41 41.4978 -108.0047 50° Northeast 562 1041 43.000  Level Denver Center
Wed 19:10:43 41.5931 -107.8481 51° Northeast 567 1049 43.000  Level Denver Center
Wed 19:11:45 41.7042 -107.6667 51° Northeast 567 1049 43.000  Level Denver Center
Wed 19:12:47 41.7956 -107.5083 52° Northeast 563 1043 43.000  Level Denver Center
Wed 19:13:49 41.8936 -107.3186 55° Northeast 557 1032 43.000  Level Denver Center
Wed 19:14:51 41.9781 -107.1558 55° Northeast 557 1032 43.000  Level Denver Center
Wed 19:15:53 42.0483 -107.0217 55° Northeast 552 1022 43.000  Level Denver Center
Wed 19:16:55 42.1594 -106.8042 55° Northeast 552 1022 43.000  Level Denver Center
Wed 19:17:58 42.2558 -106.6133 56° Northeast 552 1022 43.000  Level Denver Center
Wed 19:19:00 42.3425 -106.4456 55° Northeast 552 1022 43.000  Level Denver Center
Wed 19:20:02 42.4242 -106.2825 56° Northeast 548 1015 43.000  Level Denver Center
Wed 19:21:04 42.5192 -106.0894 56° Northeast 551 1020 43.000  Level Denver Center
Wed 19:22:06 42.6011 -105.9258 56° Northeast 547 1012 43.000  Level Denver Center
Wed 19:23:08 42.6939 -105.7356 56° Northeast 539 998 43.000  Level Denver Center
Wed 19:24:10 42.7733 -105.5753 56° Northeast 534 990 43.000  Level Denver Center
Wed 19:25:12 42.8661 -105.3867 56° Northeast 534 990 43.000  Level Denver Center
Wed 19:26:14 42.9444 -105.2244 57° Northeast 533 987 43.000  Level Denver Center
Wed 19:27:16 43.0369 -105.0347 56° Northeast 534 990 43.000  Level Denver Center
Wed 19:28:18 43.1142 -104.8711 57° Northeast 533 987 43.000  Level Denver Center
Wed 19:29:20 43.1939 -104.7053 57° Northeast 536 993 43.000  Level Denver Center
Wed 19:30:22 43.2861 -104.5094 57° Northeast 541 1003 43.000  Level Denver Center
Wed 19:31:24 43.3647 -104.3411 57° Northeast 543 1006 43.000  Level Denver Center
Wed 19:32:27 43.4569 -104.1433 57° Northeast 546 1011 43.000  Level Denver Center
Wed 19:33:29 43.5369 -103.9761 57° Northeast 546 1011 43.000  Level Denver Center
Wed 19:34:31 43.6286 -103.7794 57° Northeast 545 1009 43.000  Level Denver Center
Wed 19:35:33 43.7067 -103.6089 58° Northeast 548 1015 43.000  Level Denver Center
Wed 19:36:35 43.7981 -103.4097 58° Northeast 549 1017 43.000  Level Denver Center
Wed 19:37:37 43.8764 -103.2369 58° Northeast 551 1020 43.000  Level Denver Center
Wed 19:38:39 43.9658 -103.0372 58° Northeast 548 1015 43.000  Level Denver Center
Wed 19:39:41 44.0333 -102.8581 62° Northeast 546 1011 43.000  Level Denver Center
Wed 19:40:43 44.0908 -102.6775 66° East 546 1011 43.000  Level Denver Center
Wed 19:41:45 44.1683 -102.4442 65° Northeast 551 1020 43.000  Level Denver Center
Wed 19:42:47 44.2297 -102.2497 66° East 550 1019 43.000  Level Denver Center
Wed 19:43:49 44.2933 -102.0569 65° Northeast 548 1015 43.000  Level Denver Center
Wed 19:44:51 44.3578 -101.8661 65° Northeast 545 1009 43.000  Level Denver Center
Wed 19:45:53 44.4183 -101.6719 66° East 545 1009 43.000  Level Denver Center
Wed 19:46:55 44.4792 -101.4811 66° East 540 999 43.000  Level Denver Center
Wed 19:47:36 44.5278 -101.3272 66° East 542 1004 43.000  Level Minneapolis Center
Wed 19:48:38 44.5900 -101.1342 66° East 543 1006 43.000  Level Minneapolis Center
Wed 19:49:40 44.6508 -100.9422 66° East 542 1004 43.000  Level Minneapolis Center
Wed 19:50:43 44.7106 -100.7481 67° East 542 1004 43.000  Level Minneapolis Center
Wed 19:51:45 44.7700 -100.5550 66° East 540 999 43.000  Level Minneapolis Center
Wed 19:52:47 44.8419 -100.3214 66° East 543 1006 43.000  Level Minneapolis Center
Wed 19:53:49 44.9014 -100.1264 67° East 545 1009 43.000  Level Minneapolis Center
Wed 19:54:51 44.9619 -99.9214 67° East 547 1012 43.000  Level Minneapolis Center
Wed 19:55:53 45.0164 -99.7408 67° East 552 1022 43.000  Level Minneapolis Center
Wed 19:56:55 45.0878 -99.5069 67° East 547 1012 43.000  Level Minneapolis Center
Wed 19:57:57 45.1458 -99.3114 67° East 544 1007 43.000  Level Minneapolis Center
Wed 19:58:59 45.2033 -99.1158 67° East 540 999 43.000  Level Minneapolis Center
Wed 20:00:05 45.2722 -98.8825 67° East 537 995 43.000  Level Minneapolis Center
Wed 20:01:07 45.3272 -98.6883 68° East 533 987 43.000  Level Minneapolis Center
Wed 20:02:09 45.3831 -98.4922 68° East 534 990 43.000 -290 Level Minneapolis Center
Wed 20:03:11 45.4233 -98.2864 74° East 542 1004 42.400 -960 Descending Minneapolis Center
Wed 20:04:14 45.4339 -98.0475 86° East 543 1006 41.000 -672 Descending Minneapolis Center
Wed 20:05:16 45.4442 -97.8333 86° East 543 1006 41.000  Level Minneapolis Center
Wed 20:06:18 45.4522 -97.6200 87° East 541 1003 41.000  Level Minneapolis Center
Wed 20:07:20 45.4614 -97.4078 86° East 538 996 41.000  Level Minneapolis Center
Wed 20:08:22 45.4692 -97.1961 87° East 537 995 41.000  Level Minneapolis Center
Wed 20:09:24 45.4769 -96.9850 87° East 535 991 41.000 -919 Level Minneapolis Center
Wed 20:10:26 45.4853 -96.7336 87° East 531 983 39.100 -2.274 Descending Minneapolis Center
Wed 20:11:28 45.4936 -96.5336 87° East 511 946 36.300 -2.710 Descending Minneapolis Center
Wed 20:12:30 45.4978 -96.3425 88° East 489 906 33.500 -2.806 Descending Minneapolis Center
Wed 20:13:32 45.5042 -96.1322 87° East 521 966 30.500 -2.903 Descending Minneapolis Center
Wed 20:14:34 45.5111 -95.9233 87° East 527 975 27.500 -2.855 Descending Minneapolis Center
Wed 20:15:36 45.5158 -95.7150 88° East 526 974 24.600 -3.000 Descending Minneapolis Center
Wed 20:16:38 45.5217 -95.4822 88° East 496 919 21.300 -2.880 Descending Minneapolis Center
Wed 20:17:41 45.5264 -95.2908 88° East 486 900 18.600 -2.544 Descending Minneapolis Center
Wed 20:18:43 45.5297 -95.1117 88° East 462 856 16.000 -2.565 Descending Minneapolis Center
Wed 20:19:45 45.5336 -94.9256 88° East 451 835 13.300 -3.000 Descending Minneapolis Center
Wed 20:20:47 45.5364 -94.7753 88° East 392 726 9.800 -3.000 Descending Minneapolis Center
Wed 20:21:49 45.5419 -94.6514 86° East 331 613 7.100 -2.081 Descending Minneapolis Center
Wed 20:22:51 45.5508 -94.5319 84° East 310 575 5.500 -1.355 Descending Minneapolis Center
Wed 20:23:53 45.5717 -94.4242 75° East 294 544 4.300 -1.065 Descending Minneapolis Center
Wed 20:24:55 45.5883 -94.3181 77° East 258 478 3.300 -613 Descending Minneapolis Center
Wed 20:26:10 45.5978 -94.2167 82° East 234 433 2.900 -307 Descending Minneapolis Center
Wed 20:27:12 45.6014 -94.1467 86° East 225 417 2.600 -290 Descending Minneapolis Center

Login

Don't have an account? Register now (free) for customized features, flight alerts, and more!